[source: ADDS]
METAR
TAF EDVE 201700Z 2018/2021 20005KT 9999 SCT035 PROB30 TEMPO 2018/2021 24015G25KT 3500 TSRA BKN012CB EDDV 210250Z 25004KT 200V300 9999 FEW035 17/15 Q1014

TAF AMD EDDV 210144Z 2101/2124 24005KT 9999 SCT040 TEMPO 2101/2105 3500 BR BECMG 2106/2108 27011KT PROB30 TEMPO 2112/2116 29015G25KT BECMG 2117/2119 31006KT BECMG 2119/2121 VRB03KT ETHS 210220Z AUTO 25006KT 4000 // ////// 15/15 Q1013 ///

ETHC 210220Z 23005KT 9999 FEW120 16/15 Q1014 BLU+

EDVK 210250Z VRB02KT 9999 SCT020 15/15 Q1016

TAF EDVK 202000Z 2021/2103 18005KT 9999 FEW010 PROB30 TEMPO 2100/2103 4000 BR BKN010
TAF
TAF EDVE 201700Z 2018/2021 20005KT 9999 SCT035 PROB30 TEMPO 2018/2021 24015G25KT 3500 TSRA BKN012CB

TAF AMD EDDV 210144Z 2101/2124 24005KT 9999 SCT040 TEMPO 2101/2105 3500 BR BECMG 2106/2108 27011KT PROB30 TEMPO 2112/2116 29015G25KT BECMG 2117/2119 31006KT BECMG 2119/2121 VRB03KT

TAF EDVK 202000Z 2021/2103 18005KT 9999 FEW010 PROB30 TEMPO 2100/2103 4000 BR BKN010

SR / SS: 03:22 / 19:26 UTC (EDVE 2019-07-21)
Hallo Peter, willkommen im Verein und viel Spaß bei der Ausbildung! +++ Falk hat sich freigeflogen! Gratulation und weiterhin Happy Landings! +++ Herzlich Willkommen im Verein Christoph und viel Erfolg für deine weitere Ausbildung! +++ Und wieder ein neue Pilot. Wir beglückwünschen Max zur erfolgreichen PPL-Prüfung und wünschen Always Happy Landings! +++ Tibor hat die PPL-Prüfung bestanden. Gratulation und Always Happy Landings! +++ Mathias und Stefan haben die theoretische Prüfung bestanden! Herzlichen Glückwunsch und weiterhin viel Erfolg für die restliche Ausbildung! +++ Herzlich Willkommen in der FFG Jan! +++ Miro hat seine Praktische Prüfung bestanden! Herzlichen Glückwunsch und Always Happy Landings! +++ Stefan hat sich freigeflogen. Herzlichen Glückwunsch und weiterhin always happy landings! +++ David und Christian haben die Nachtflugberechtigung erhalten. Herzlichen Glückwunsch und viel Spaß beim Erleben der Faszination "Nachtflug"! +++ Hallo Florian! Willkommen im Verein und viel Erfolg für deine Ausbildung!

wenig -> mittel -> viel

Professionelle Piloten arbeiten mit Checkliste
Ausdrucken und abarbeiten! Vorbereitete Links helfen bei der Beschaffung der notwendigen Informationen.

Weiterlesen ...

 Zugang zur DFS. Auf dem FFG-Account sind alle erforderlichen Daten unserer Maschinen hinterlegt. Jedes Mitglied hat hier volle Rechte! Zugangsdaten gibt es im Internen Bereich.

Hier gibt es die AIP mit allen erforderlichen Karten die im Abo der FFG liegen zum Download für unsere Mitglieder.

Letztes NOTAM EDVE
von 22.07.2019 1600Z bis 23.08.2019 0500Z
TWY C NORTH OF MAIN APRON PARTLY CLSD DUE TO WIP.

Letztes NOTAM EDBC
von 29.08.2019 0800Z bis 29.08.2019 1200Z
MAGDEBURG VOR/DME MAG 110.45MHZ/CH41Y ON MAINT, DO NOT USE, FALSE INDICATIONS POSSIBLE.

Letztes NOTAM EDVM
von 25.06.2019 0700Z bis PERM
SAFETYZONE FOR PJE ESTABLISHED ON APRON 1, TWY D BTN TWY G AND B AND TWY B SOUTH TWY D. DURING PJE ACT START UP OF ENGINES NOT PERMITTED. ACTUAL [more]

Letztes NOTAM EDOV
von 20.07.2019 0600Z bis 21.07.2019 1923Z
DAILY 0600-SS
PJE VMC 2NM RADIUS CENTERED ON PSN 523744N 0114912E, STENDAL-BORSTEL AIRFIELD.
GND- FL120

Letztes NOTAM EDDV
von 25.07.2019 0600Z bis 25.07.2019 0900Z
AVGAS STATION FOR GENERAL AVIATION OUT OF SERVICE.

Letztes NOTAM EDVK
von 15.07.2019 1113Z bis PERM
PPR FOR VFR TRAINING FLT, ACFT MTOM MORE 15T CONTACT +49(0)56742153170.

          aerodata150     Radio38